Terminal Aerodrome Forecast
Issued by NWS Cleveland, OH

Home | Current Version | Previous Version | Graphics & Text | Print | Product List | Glossary On
Versions: 1 2 3 4 5 6 7 8 9 10 11 12 13 14 15 16 17 18 19 20 21 22 23 24
000
FTUS41 KCLE 261733
TAFCLE
TAF
KCLE 261733Z 2618/2724 17012G20KT P6SM FEW120 BKN250
     FM270000 17012KT P6SM BKN250
     FM271600 20015G25KT 6SM -SHRA BKN050 OVC100
     FM272300 24014KT 6SM -SHRA BKN035 OVC050=

USA.gov is the U.S. government's official web portal to all federal, state and local government web resources and services.